createdAt,value
2018-07-15T00:01:55.420Z,96933.70
2018-07-15T00:06:49.949Z,96926.61
2018-07-15T00:11:44.570Z,96917.67
2018-07-15T00:16:39.058Z,96916.27
2018-07-15T00:21:33.580Z,96915.53
2018-07-15T00:26:28.136Z,96922.89
2018-07-15T00:31:22.927Z,96931.25
2018-07-15T00:36:17.468Z,96951.07
2018-07-15T00:41:12.020Z,96953.91
2018-07-15T00:46:06.588Z,96957.80
2018-07-15T00:51:01.224Z,96959.34
2018-07-15T00:55:55.812Z,96957.88
2018-07-15T01:00:55.182Z,96956.15
2018-07-15T01:05:49.717Z,96948.74
2018-07-15T01:10:44.317Z,96955.85
2018-07-15T01:15:38.877Z,96952.23
2018-07-15T01:20:33.617Z,96947.93
2018-07-15T01:25:28.173Z,96957.28
2018-07-15T01:30:22.760Z,96945.77
2018-07-15T01:35:17.246Z,96942.83
2018-07-15T01:40:11.810Z,96952.37
2018-07-15T01:45:06.352Z,96950.67
2018-07-15T01:50:00.894Z,96945.92
2018-07-15T01:54:55.148Z,96944.84
2018-07-15T01:59:49.728Z,96949.48
2018-07-15T02:04:44.362Z,96950.30
2018-07-15T02:09:38.868Z,96956.22
2018-07-15T02:14:33.367Z,96960.55
2018-07-15T02:19:27.827Z,96958.95
2018-07-15T02:24:22.324Z,96958.37
2018-07-15T02:29:16.828Z,96959.70
2018-07-15T02:34:11.461Z,96956.48
2018-07-15T02:39:08.354Z,96958.00
2018-07-15T02:44:02.863Z,96969.56
2018-07-15T02:48:57.359Z,96965.11
2018-07-15T02:53:51.877Z,96963.25
2018-07-15T02:58:46.358Z,96962.31
2018-07-15T03:03:40.878Z,96951.12
2018-07-15T03:08:35.449Z,96955.67
2018-07-15T03:13:29.948Z,96950.11
2018-07-15T03:18:24.426Z,96947.99
2018-07-15T03:23:18.905Z,96953.81
2018-07-15T03:28:13.380Z,96952.05
2018-07-15T03:33:07.897Z,96953.94
2018-07-15T03:38:02.401Z,96957.39
2018-07-15T03:42:56.570Z,96951.25
2018-07-15T03:47:51.052Z,96948.58
2018-07-15T03:52:45.231Z,96937.39
2018-07-15T03:57:39.797Z,96928.05
2018-07-15T04:02:34.339Z,96927.24
2018-07-15T04:07:28.853Z,96935.92
2018-07-15T04:12:23.126Z,96928.83
2018-07-15T04:17:17.633Z,96925.75
2018-07-15T04:22:12.126Z,96918.75
2018-07-15T04:27:06.650Z,96933.84
2018-07-15T04:32:01.158Z,96934.81
2018-07-15T04:36:55.660Z,96945.47
2018-07-15T04:41:50.152Z,96953.74
2018-07-15T04:46:44.641Z,96951.61
2018-07-15T04:51:39.168Z,96960.11
2018-07-15T04:56:33.713Z,96979.27
2018-07-15T05:01:28.257Z,96992.55
2018-07-15T05:06:22.761Z,96995.59
2018-07-15T05:11:17.285Z,96995.64
2018-07-15T05:16:11.731Z,97008.12
2018-07-15T05:21:06.437Z,97027.85
2018-07-15T05:26:00.928Z,97035.14
2018-07-15T05:30:55.382Z,97028.27
2018-07-15T05:35:49.877Z,97029.70
2018-07-15T05:40:44.373Z,97028.12
2018-07-15T05:45:38.888Z,97021.15
2018-07-15T05:50:33.320Z,97017.11
2018-07-15T05:55:27.872Z,97017.10
2018-07-15T06:00:22.372Z,97011.44
2018-07-15T06:05:16.892Z,97011.72
2018-07-15T06:10:11.431Z,97015.41
2018-07-15T06:15:06.321Z,97014.34
2018-07-15T06:20:00.837Z,97014.41
2018-07-15T06:24:55.325Z,97009.42
2018-07-15T06:29:49.869Z,97017.90
2018-07-15T06:34:44.381Z,97016.08
2018-07-15T06:39:38.896Z,97012.40
2018-07-15T06:44:33.423Z,97007.38
2018-07-15T06:49:27.969Z,97013.77
2018-07-15T06:54:22.566Z,97001.25
2018-07-15T06:59:17.064Z,97000.98
2018-07-15T07:04:11.521Z,97016.62
2018-07-15T07:09:07.411Z,97020.28
2018-07-15T07:14:01.986Z,97013.54
2018-07-15T07:18:56.451Z,97004.67
2018-07-15T07:23:50.955Z,96994.49
2018-07-15T07:28:45.531Z,96997.73
2018-07-15T07:33:40.001Z,96998.41
2018-07-15T07:38:34.540Z,96998.66
2018-07-15T07:43:29.009Z,96987.48
2018-07-15T07:48:23.718Z,96981.77
2018-07-15T07:53:18.408Z,96981.00
2018-07-15T07:58:12.837Z,96972.38
2018-07-15T08:03:07.372Z,96977.38
2018-07-15T08:08:02.002Z,96985.95
2018-07-15T08:12:56.629Z,96984.19
2018-07-15T08:17:51.201Z,96981.38
2018-07-15T08:22:45.779Z,96983.77
2018-07-15T08:27:40.277Z,96976.43
2018-07-15T08:32:34.804Z,96966.08
2018-07-15T08:37:29.340Z,96970.91
2018-07-15T08:42:23.918Z,96954.17
2018-07-15T08:47:18.509Z,96963.64
2018-07-15T08:52:13.377Z,96959.43
2018-07-15T08:57:07.836Z,96953.80
2018-07-15T09:02:02.448Z,96951.75
2018-07-15T09:06:56.969Z,96942.20
2018-07-15T09:11:51.550Z,96943.93
2018-07-15T09:16:47.008Z,96937.61
2018-07-15T09:21:41.610Z,96942.32
2018-07-15T09:26:36.998Z,96951.42
2018-07-15T09:31:31.697Z,96954.65
2018-07-15T09:36:26.208Z,96953.95
2018-07-15T09:41:20.781Z,96947.22
2018-07-15T09:46:15.372Z,96936.68
2018-07-15T09:51:09.603Z,96927.43
2018-07-15T09:56:04.133Z,96931.83
2018-07-15T10:00:58.386Z,96929.64
2018-07-15T10:05:53.030Z,96934.42
2018-07-15T10:10:47.740Z,96916.75
2018-07-15T10:15:42.287Z,96901.84
2018-07-15T10:20:36.933Z,96900.78
2018-07-15T10:25:31.507Z,96894.75
2018-07-15T10:30:26.092Z,96889.80
2018-07-15T10:35:20.818Z,96879.66
2018-07-15T10:40:15.092Z,96878.81
2018-07-15T10:45:09.635Z,96874.47
2018-07-15T10:50:04.199Z,96863.11
2018-07-15T10:54:58.771Z,96840.17
2018-07-15T10:59:53.386Z,96834.85
2018-07-15T11:04:47.897Z,96831.63
2018-07-15T11:09:42.397Z,96820.77
2018-07-15T11:14:36.948Z,96809.81
2018-07-15T11:19:31.917Z,96813.34
2018-07-15T11:24:26.826Z,96812.84
2018-07-15T11:29:21.416Z,96805.19
2018-07-15T11:34:15.893Z,96804.14
2018-07-15T11:39:10.589Z,96793.64
2018-07-15T11:44:05.187Z,96786.69
2018-07-15T11:49:00.057Z,96787.53
2018-07-15T11:53:54.957Z,96780.34
2018-07-15T11:58:49.513Z,96770.80
2018-07-15T12:03:44.185Z,96764.70
2018-07-15T12:08:39.009Z,96772.64
2018-07-15T12:13:34.560Z,96762.53
2018-07-15T12:18:29.164Z,96761.66
2018-07-15T12:23:24.229Z,96759.89
2018-07-15T12:28:18.838Z,96760.11
2018-07-15T12:33:13.373Z,96755.97
2018-07-15T12:38:16.472Z,96742.09
2018-07-15T12:43:11.701Z,96739.10
2018-07-15T12:48:06.224Z,96733.77
2018-07-15T12:53:00.864Z,96723.49
2018-07-15T12:57:55.219Z,96705.23
2018-07-15T13:02:49.729Z,96702.89
2018-07-15T13:07:44.349Z,96695.47
2018-07-15T13:12:38.894Z,96686.90
2018-07-15T13:17:33.413Z,96682.61
2018-07-15T13:22:27.615Z,96675.78
2018-07-15T13:27:22.188Z,96683.89
2018-07-15T13:32:16.683Z,96686.67
2018-07-15T13:37:11.616Z,96686.46
2018-07-15T13:42:06.310Z,96685.33
2018-07-15T13:47:00.495Z,96675.70
2018-07-15T13:51:55.008Z,96673.84
2018-07-15T13:56:49.534Z,96670.98
2018-07-15T14:01:44.053Z,96666.36
2018-07-15T14:06:38.604Z,96668.41
2018-07-15T14:11:33.114Z,96655.58
2018-07-15T14:16:27.607Z,96646.09
2018-07-15T14:21:22.152Z,96636.73
2018-07-15T14:26:16.683Z,96637.00
2018-07-15T14:31:11.308Z,96635.30
2018-07-15T14:36:05.840Z,96638.70
2018-07-15T14:41:00.405Z,96643.05
2018-07-15T14:45:54.913Z,96644.52
2018-07-15T14:50:49.430Z,96655.33
2018-07-15T14:55:44.003Z,96655.45
2018-07-15T15:00:39.002Z,96652.10
2018-07-15T15:05:33.505Z,96660.03
2018-07-15T15:10:27.795Z,96653.02
2018-07-15T15:15:22.032Z,96636.13
2018-07-15T15:20:16.534Z,96629.82
2018-07-15T15:25:11.088Z,96634.13
2018-07-15T15:30:06.166Z,96638.11
2018-07-15T15:35:00.664Z,96626.63
2018-07-15T15:39:55.148Z,96624.67
2018-07-15T15:44:49.858Z,96615.98
2018-07-15T15:49:43.931Z,96605.34
2018-07-15T15:54:38.412Z,96597.25
2018-07-15T15:59:32.925Z,96597.16
2018-07-15T16:04:27.572Z,96576.89
2018-07-15T16:09:22.129Z,96574.30
2018-07-15T16:14:16.646Z,96589.27
2018-07-15T16:19:11.188Z,96588.31
2018-07-15T16:24:05.721Z,96613.47
2018-07-15T16:29:00.255Z,96649.63
2018-07-15T16:33:54.990Z,96665.09
2018-07-15T16:38:49.661Z,96676.16
2018-07-15T16:43:44.648Z,96698.20
2018-07-15T16:48:40.078Z,96731.19
2018-07-15T16:53:34.621Z,96719.75
2018-07-15T16:58:29.265Z,96701.80
2018-07-15T17:03:24.153Z,96683.05
2018-07-15T17:08:18.713Z,96699.92
2018-07-15T17:13:14.342Z,96707.77
2018-07-15T17:18:09.285Z,96707.67
2018-07-15T17:23:04.766Z,96708.92
2018-07-15T17:27:59.342Z,96714.25
2018-07-15T17:32:53.892Z,96724.20
2018-07-15T17:37:48.440Z,96731.70
2018-07-15T17:42:42.682Z,96728.73
2018-07-15T17:47:37.565Z,96742.42
2018-07-15T17:52:32.192Z,96753.86
2018-07-15T17:57:26.801Z,96757.25
2018-07-15T18:02:21.426Z,96742.19
2018-07-15T18:07:15.982Z,96744.47
2018-07-15T18:12:10.548Z,96736.38
2018-07-15T18:17:05.108Z,96728.58
2018-07-15T18:21:59.745Z,96729.23
2018-07-15T18:26:54.275Z,96728.69
2018-07-15T18:31:48.852Z,96731.86
2018-07-15T18:36:43.340Z,96751.31
2018-07-15T18:41:38.089Z,96758.45
2018-07-15T18:46:32.709Z,96776.80
2018-07-15T18:51:27.245Z,96779.61
2018-07-15T18:56:21.841Z,96784.84
2018-07-15T19:01:16.501Z,96791.66
2018-07-15T19:06:11.130Z,96806.13
2018-07-15T19:11:05.981Z,96814.38
2018-07-15T19:16:00.669Z,96800.84
2018-07-15T19:20:55.582Z,96777.13
2018-07-15T19:25:50.430Z,96775.23
2018-07-15T19:30:44.974Z,96774.95
2018-07-15T19:35:39.496Z,96779.55
2018-07-15T19:40:34.328Z,96785.84
2018-07-15T19:45:28.599Z,96811.95
2018-07-15T19:50:23.541Z,96835.47
2018-07-15T19:55:18.515Z,96852.13
2018-07-15T20:00:13.285Z,96869.21
2018-07-15T20:05:07.845Z,96891.49
2018-07-15T20:10:02.392Z,96915.72
2018-07-15T20:14:56.920Z,96909.59
2018-07-15T20:19:51.492Z,96906.55
2018-07-15T20:24:45.968Z,96911.38
2018-07-15T20:29:40.452Z,96902.53
2018-07-15T20:34:35.010Z,96901.11
2018-07-15T20:39:29.583Z,96901.64
2018-07-15T20:44:24.062Z,96903.47
2018-07-15T20:49:18.611Z,96904.66
2018-07-15T20:54:13.080Z,96914.30
2018-07-15T20:59:07.601Z,96928.18
2018-07-15T21:04:03.560Z,96935.60
2018-07-15T21:08:57.800Z,96980.44
2018-07-15T21:13:52.321Z,96984.37
2018-07-15T21:18:46.864Z,97000.29
2018-07-15T21:23:41.412Z,96995.25
2018-07-15T21:28:35.941Z,96985.84
2018-07-15T21:33:30.484Z,96980.68
2018-07-15T21:38:25.057Z,96983.50
2018-07-15T21:43:19.649Z,96978.61
2018-07-15T21:48:14.196Z,96979.30
2018-07-15T21:53:08.689Z,96957.08
2018-07-15T21:58:03.208Z,96948.80
2018-07-15T22:02:57.787Z,96950.31
2018-07-15T22:08:09.045Z,96949.79
2018-07-15T22:13:03.629Z,96938.19
2018-07-15T22:17:58.150Z,96936.33
2018-07-15T22:22:52.670Z,96928.06
2018-07-15T22:27:47.204Z,96924.63
2018-07-15T22:32:41.731Z,96921.00
2018-07-15T22:37:36.252Z,96923.47
2018-07-15T22:42:30.785Z,96920.22
2018-07-15T22:47:25.417Z,96914.66
2018-07-15T22:52:19.910Z,96905.34
2018-07-15T22:57:14.406Z,96897.32
2018-07-15T23:02:09.116Z,96889.30
2018-07-15T23:07:03.612Z,96887.72
2018-07-15T23:11:58.280Z,96878.39
2018-07-15T23:16:52.786Z,96878.12
2018-07-15T23:21:47.013Z,96881.17
2018-07-15T23:26:41.525Z,96884.98
2018-07-15T23:31:36.028Z,96875.17
2018-07-15T23:36:30.527Z,96876.56
2018-07-15T23:41:25.260Z,96870.67
2018-07-15T23:46:19.771Z,96866.95
2018-07-15T23:51:14.331Z,96862.97
2018-07-15T23:56:08.845Z,96860.85
